sensor_id;sensor_type;location;lat;lon;timestamp;P1;durP1;ratioP1;P2;durP2;ratioP2
72284;SDS011;60220;53.552;10.092;2024-03-22T00:02:11;15.27;;;7.38;;
72284;SDS011;60220;53.552;10.092;2024-03-22T00:04:37;14.88;;;7.93;;
72284;SDS011;60220;53.552;10.092;2024-03-22T00:07:05;13.40;;;7.78;;
72284;SDS011;60220;53.552;10.092;2024-03-22T00:09:31;20.45;;;7.32;;
72284;SDS011;60220;53.552;10.092;2024-03-22T00:11:58;14.40;;;7.60;;
72284;SDS011;60220;53.552;10.092;2024-03-22T00:14:24;18.13;;;7.95;;
72284;SDS011;60220;53.552;10.092;2024-03-22T00:16:51;16.13;;;7.93;;
72284;SDS011;60220;53.552;10.092;2024-03-22T00:19:19;17.38;;;7.97;;
72284;SDS011;60220;53.552;10.092;2024-03-22T00:21:45;14.55;;;8.05;;
72284;SDS011;60220;53.552;10.092;2024-03-22T00:24:12;18.25;;;8.38;;
72284;SDS011;60220;53.552;10.092;2024-03-22T00:26:39;13.32;;;7.65;;
72284;SDS011;60220;53.552;10.092;2024-03-22T00:29:05;16.67;;;7.57;;
72284;SDS011;60220;53.552;10.092;2024-03-22T00:31:31;21.50;;;8.05;;
72284;SDS011;60220;53.552;10.092;2024-03-22T00:33:57;12.93;;;7.28;;
72284;SDS011;60220;53.552;10.092;2024-03-22T00:36:23;15.45;;;6.47;;
72284;SDS011;60220;53.552;10.092;2024-03-22T00:38:49;15.07;;;7.43;;
72284;SDS011;60220;53.552;10.092;2024-03-22T00:41:17;22.20;;;8.50;;
72284;SDS011;60220;53.552;10.092;2024-03-22T00:43:43;15.90;;;7.68;;
72284;SDS011;60220;53.552;10.092;2024-03-22T00:46:09;20.17;;;9.65;;
72284;SDS011;60220;53.552;10.092;2024-03-22T00:48:35;16.25;;;8.50;;
72284;SDS011;60220;53.552;10.092;2024-03-22T00:51:04;19.63;;;8.32;;
72284;SDS011;60220;53.552;10.092;2024-03-22T00:53:32;18.15;;;9.27;;
72284;SDS011;60220;53.552;10.092;2024-03-22T00:55:58;17.13;;;9.27;;
72284;SDS011;60220;53.552;10.092;2024-03-22T00:58:26;15.50;;;7.20;;
72284;SDS011;60220;53.552;10.092;2024-03-22T01:00:53;24.85;;;9.27;;
72284;SDS011;60220;53.552;10.092;2024-03-22T01:03:21;21.67;;;11.32;;
72284;SDS011;60220;53.552;10.092;2024-03-22T01:05:48;15.20;;;7.95;;
72284;SDS011;60220;53.552;10.092;2024-03-22T01:08:14;17.98;;;9.32;;
72284;SDS011;60220;53.552;10.092;2024-03-22T01:10:41;27.45;;;9.30;;
72284;SDS011;60220;53.552;10.092;2024-03-22T01:13:08;19.88;;;10.27;;
72284;SDS011;60220;53.552;10.092;2024-03-22T01:15:36;19.63;;;9.18;;
72284;SDS011;60220;53.552;10.092;2024-03-22T01:18:02;22.73;;;9.85;;
72284;SDS011;60220;53.552;10.092;2024-03-22T01:20:29;18.75;;;9.75;;
72284;SDS011;60220;53.552;10.092;2024-03-22T01:22:55;19.02;;;9.98;;
72284;SDS011;60220;53.552;10.092;2024-03-22T01:25:21;18.33;;;9.05;;
72284;SDS011;60220;53.552;10.092;2024-03-22T01:27:47;16.33;;;8.57;;
72284;SDS011;60220;53.552;10.092;2024-03-22T01:30:16;17.27;;;9.05;;
72284;SDS011;60220;53.552;10.092;2024-03-22T01:32:43;18.30;;;9.55;;
72284;SDS011;60220;53.552;10.092;2024-03-22T01:35:12;22.27;;;8.85;;
72284;SDS011;60220;53.552;10.092;2024-03-22T01:37:37;20.83;;;10.77;;
72284;SDS011;60220;53.552;10.092;2024-03-22T01:40:07;17.65;;;9.05;;
72284;SDS011;60220;53.552;10.092;2024-03-22T01:42:33;22.77;;;10.73;;
72284;SDS011;60220;53.552;10.092;2024-03-22T01:45:00;18.67;;;8.60;;
72284;SDS011;60220;53.552;10.092;2024-03-22T01:47:25;22.42;;;10.25;;
72284;SDS011;60220;53.552;10.092;2024-03-22T01:49:54;19.98;;;10.60;;
72284;SDS011;60220;53.552;10.092;2024-03-22T01:52:23;18.25;;;9.63;;
72284;SDS011;60220;53.552;10.092;2024-03-22T01:54:50;19.58;;;8.90;;
72284;SDS011;60220;53.552;10.092;2024-03-22T01:57:15;23.10;;;10.32;;
72284;SDS011;60220;53.552;10.092;2024-03-22T01:59:42;22.73;;;9.13;;
72284;SDS011;60220;53.552;10.092;2024-03-22T02:02:08;25.17;;;10.90;;
72284;SDS011;60220;53.552;10.092;2024-03-22T02:04:36;23.58;;;11.63;;
72284;SDS011;60220;53.552;10.092;2024-03-22T02:07:03;20.05;;;10.23;;
72284;SDS011;60220;53.552;10.092;2024-03-22T02:09:30;21.25;;;11.73;;
72284;SDS011;60220;53.552;10.092;2024-03-22T02:11:58;20.05;;;11.25;;
72284;SDS011;60220;53.552;10.092;2024-03-22T02:14:25;22.38;;;12.15;;
72284;SDS011;60220;53.552;10.092;2024-03-22T02:16:50;22.45;;;11.77;;
72284;SDS011;60220;53.552;10.092;2024-03-22T02:19:19;25.92;;;12.57;;
72284;SDS011;60220;53.552;10.092;2024-03-22T02:21:45;25.92;;;12.88;;
72284;SDS011;60220;53.552;10.092;2024-03-22T02:24:13;24.95;;;12.10;;
72284;SDS011;60220;53.552;10.092;2024-03-22T02:26:38;23.05;;;11.38;;
72284;SDS011;60220;53.552;10.092;2024-03-22T02:29:05;30.38;;;13.60;;
72284;SDS011;60220;53.552;10.092;2024-03-22T02:31:31;25.08;;;11.07;;
72284;SDS011;60220;53.552;10.092;2024-03-22T02:33:57;24.95;;;12.60;;
72284;SDS011;60220;53.552;10.092;2024-03-22T02:36:23;28.23;;;12.48;;
72284;SDS011;60220;53.552;10.092;2024-03-22T02:38:49;25.85;;;12.27;;
72284;SDS011;60220;53.552;10.092;2024-03-22T02:41:16;29.00;;;12.60;;
72284;SDS011;60220;53.552;10.092;2024-03-22T02:43:45;25.13;;;12.00;;
72284;SDS011;60220;53.552;10.092;2024-03-22T02:46:11;23.83;;;12.70;;
72284;SDS011;60220;53.552;10.092;2024-03-22T02:48:40;32.45;;;12.75;;
72284;SDS011;60220;53.552;10.092;2024-03-22T02:51:06;27.00;;;13.75;;
72284;SDS011;60220;53.552;10.092;2024-03-22T02:53:32;28.90;;;13.82;;
72284;SDS011;60220;53.552;10.092;2024-03-22T02:55:59;23.85;;;13.27;;
72284;SDS011;60220;53.552;10.092;2024-03-22T02:58:27;32.75;;;14.60;;
72284;SDS011;60220;53.552;10.092;2024-03-22T03:00:53;26.08;;;13.38;;
72284;SDS011;60220;53.552;10.092;2024-03-22T03:03:19;31.17;;;13.13;;
72284;SDS011;60220;53.552;10.092;2024-03-22T03:05:46;29.13;;;14.02;;
72284;SDS011;60220;53.552;10.092;2024-03-22T03:08:11;29.48;;;13.25;;
72284;SDS011;60220;53.552;10.092;2024-03-22T03:10:38;29.90;;;15.10;;
72284;SDS011;60220;53.552;10.092;2024-03-22T03:13:03;34.08;;;15.70;;
72284;SDS011;60220;53.552;10.092;2024-03-22T03:15:34;30.02;;;15.35;;
72284;SDS011;60220;53.552;10.092;2024-03-22T03:18:02;31.73;;;15.85;;
72284;SDS011;60220;53.552;10.092;2024-03-22T03:20:29;29.10;;;16.17;;
72284;SDS011;60220;53.552;10.092;2024-03-22T03:22:54;30.27;;;15.65;;
72284;SDS011;60220;53.552;10.092;2024-03-22T03:25:27;35.88;;;17.10;;
72284;SDS011;60220;53.552;10.092;2024-03-22T03:27:52;35.63;;;17.05;;
72284;SDS011;60220;53.552;10.092;2024-03-22T03:30:19;38.28;;;16.50;;
72284;SDS011;60220;53.552;10.092;2024-03-22T03:32:46;40.45;;;19.65;;
72284;SDS011;60220;53.552;10.092;2024-03-22T03:35:15;39.40;;;18.23;;
72284;SDS011;60220;53.552;10.092;2024-03-22T03:37:40;31.30;;;16.80;;
72284;SDS011;60220;53.552;10.092;2024-03-22T03:40:08;36.08;;;17.15;;
72284;SDS011;60220;53.552;10.092;2024-03-22T03:42:34;34.65;;;16.60;;
72284;SDS011;60220;53.552;10.092;2024-03-22T03:45:00;31.27;;;16.75;;
72284;SDS011;60220;53.552;10.092;2024-03-22T03:47:26;35.20;;;17.02;;
72284;SDS011;60220;53.552;10.092;2024-03-22T03:49:54;32.60;;;16.25;;
72284;SDS011;60220;53.552;10.092;2024-03-22T03:52:22;39.10;;;18.02;;
72284;SDS011;60220;53.552;10.092;2024-03-22T03:54:50;36.95;;;17.80;;
72284;SDS011;60220;53.552;10.092;2024-03-22T03:57:16;35.20;;;16.30;;
72284;SDS011;60220;53.552;10.092;2024-03-22T03:59:45;35.70;;;17.98;;
72284;SDS011;60220;53.552;10.092;2024-03-22T04:02:12;36.97;;;17.55;;
72284;SDS011;60220;53.552;10.092;2024-03-22T04:04:37;38.22;;;18.20;;
72284;SDS011;60220;53.552;10.092;2024-03-22T04:07:06;37.22;;;17.95;;
72284;SDS011;60220;53.552;10.092;2024-03-22T04:09:32;38.90;;;19.35;;
72284;SDS011;60220;53.552;10.092;2024-03-22T04:12:00;43.30;;;20.00;;
72284;SDS011;60220;53.552;10.092;2024-03-22T04:14:26;38.80;;;19.35;;
72284;SDS011;60220;53.552;10.092;2024-03-22T04:16:52;40.72;;;19.63;;
72284;SDS011;60220;53.552;10.092;2024-03-22T04:19:19;42.88;;;19.25;;
72284;SDS011;60220;53.552;10.092;2024-03-22T04:21:49;38.45;;;18.40;;
72284;SDS011;60220;53.552;10.092;2024-03-22T04:24:18;42.15;;;20.40;;
72284;SDS011;60220;53.552;10.092;2024-03-22T04:26:45;38.15;;;19.70;;
72284;SDS011;60220;53.552;10.092;2024-03-22T04:29:11;42.05;;;21.08;;
72284;SDS011;60220;53.552;10.092;2024-03-22T04:31:37;42.03;;;19.02;;
72284;SDS011;60220;53.552;10.092;2024-03-22T04:34:03;41.88;;;20.23;;
72284;SDS011;60220;53.552;10.092;2024-03-22T04:36:30;38.58;;;18.23;;
72284;SDS011;60220;53.552;10.092;2024-03-22T04:38:56;40.55;;;20.13;;
72284;SDS011;60220;53.552;10.092;2024-03-22T04:41:24;39.75;;;19.98;;
72284;SDS011;60220;53.552;10.092;2024-03-22T04:43:51;51.28;;;22.52;;
72284;SDS011;60220;53.552;10.092;2024-03-22T04:46:20;44.03;;;18.48;;
72284;SDS011;60220;53.552;10.092;2024-03-22T04:48:45;41.38;;;19.52;;
72284;SDS011;60220;53.552;10.092;2024-03-22T04:51:12;40.83;;;20.75;;
72284;SDS011;60220;53.552;10.092;2024-03-22T04:53:37;37.47;;;19.08;;
72284;SDS011;60220;53.552;10.092;2024-03-22T04:56:04;38.30;;;18.98;;
72284;SDS011;60220;53.552;10.092;2024-03-22T04:58:32;38.88;;;19.40;;
72284;SDS011;60220;53.552;10.092;2024-03-22T05:00:58;40.38;;;18.75;;
72284;SDS011;60220;53.552;10.092;2024-03-22T05:03:26;41.50;;;19.48;;
72284;SDS011;60220;53.552;10.092;2024-03-22T05:05:56;46.13;;;20.65;;
72284;SDS011;60220;53.552;10.092;2024-03-22T05:08:22;39.65;;;19.48;;
72284;SDS011;60220;53.552;10.092;2024-03-22T05:10:49;43.28;;;19.30;;
72284;SDS011;60220;53.552;10.092;2024-03-22T05:13:14;39.15;;;18.95;;
72284;SDS011;60220;53.552;10.092;2024-03-22T05:15:42;39.45;;;20.23;;
72284;SDS011;60220;53.552;10.092;2024-03-22T05:18:10;34.10;;;17.27;;
72284;SDS011;60220;53.552;10.092;2024-03-22T05:20:40;54.95;;;24.42;;
72284;SDS011;60220;53.552;10.092;2024-03-22T05:23:05;38.17;;;19.00;;
72284;SDS011;60220;53.552;10.092;2024-03-22T05:25:32;39.97;;;20.25;;
72284;SDS011;60220;53.552;10.092;2024-03-22T05:27:57;39.97;;;18.70;;
72284;SDS011;60220;53.552;10.092;2024-03-22T05:30:24;37.83;;;20.08;;
72284;SDS011;60220;53.552;10.092;2024-03-22T05:32:54;41.38;;;19.17;;
72284;SDS011;60220;53.552;10.092;2024-03-22T05:35:21;41.50;;;19.48;;
72284;SDS011;60220;53.552;10.092;2024-03-22T05:37:49;38.15;;;18.48;;
72284;SDS011;60220;53.552;10.092;2024-03-22T05:40:16;44.25;;;21.63;;
72284;SDS011;60220;53.552;10.092;2024-03-22T05:42:42;43.42;;;21.13;;
72284;SDS011;60220;53.552;10.092;2024-03-22T05:45:09;42.67;;;19.27;;
72284;SDS011;60220;53.552;10.092;2024-03-22T05:47:36;36.95;;;18.50;;
72284;SDS011;60220;53.552;10.092;2024-03-22T05:50:05;39.95;;;20.05;;
72284;SDS011;60220;53.552;10.092;2024-03-22T05:52:33;41.85;;;19.20;;
72284;SDS011;60220;53.552;10.092;2024-03-22T05:55:00;42.70;;;20.77;;
72284;SDS011;60220;53.552;10.092;2024-03-22T05:57:26;50.65;;;20.45;;
72284;SDS011;60220;53.552;10.092;2024-03-22T05:59:52;44.80;;;22.63;;
72284;SDS011;60220;53.552;10.092;2024-03-22T06:02:20;49.38;;;22.25;;
72284;SDS011;60220;53.552;10.092;2024-03-22T06:04:49;44.92;;;20.45;;
72284;SDS011;60220;53.552;10.092;2024-03-22T06:07:18;43.50;;;20.05;;
72284;SDS011;60220;53.552;10.092;2024-03-22T06:09:45;43.15;;;19.80;;
72284;SDS011;60220;53.552;10.092;2024-03-22T06:12:11;47.33;;;20.48;;
72284;SDS011;60220;53.552;10.092;2024-03-22T06:14:40;46.05;;;22.25;;
72284;SDS011;60220;53.552;10.092;2024-03-22T06:17:06;48.60;;;21.50;;
72284;SDS011;60220;53.552;10.092;2024-03-22T06:19:33;56.00;;;22.98;;
72284;SDS011;60220;53.552;10.092;2024-03-22T06:21:58;47.67;;;21.88;;
72284;SDS011;60220;53.552;10.092;2024-03-22T06:24:26;49.90;;;22.63;;
72284;SDS011;60220;53.552;10.092;2024-03-22T06:26:54;47.80;;;22.83;;
72284;SDS011;60220;53.552;10.092;2024-03-22T06:29:23;52.10;;;22.45;;
72284;SDS011;60220;53.552;10.092;2024-03-22T06:31:52;46.47;;;19.75;;
72284;SDS011;60220;53.552;10.092;2024-03-22T06:34:21;48.20;;;22.17;;
72284;SDS011;60220;53.552;10.092;2024-03-22T06:36:46;53.88;;;22.92;;
72284;SDS011;60220;53.552;10.092;2024-03-22T06:39:13;44.50;;;21.23;;
72284;SDS011;60220;53.552;10.092;2024-03-22T06:41:41;52.97;;;25.02;;
72284;SDS011;60220;53.552;10.092;2024-03-22T06:44:07;50.78;;;23.83;;
72284;SDS011;60220;53.552;10.092;2024-03-22T06:46:36;54.22;;;24.65;;
72284;SDS011;60220;53.552;10.092;2024-03-22T06:49:03;53.30;;;23.38;;
72284;SDS011;60220;53.552;10.092;2024-03-22T06:51:29;48.83;;;22.83;;
72284;SDS011;60220;53.552;10.092;2024-03-22T06:53:55;51.80;;;23.83;;
72284;SDS011;60220;53.552;10.092;2024-03-22T06:56:23;52.35;;;24.08;;
72284;SDS011;60220;53.552;10.092;2024-03-22T06:58:51;50.42;;;23.88;;
72284;SDS011;60220;53.552;10.092;2024-03-22T07:01:17;43.03;;;20.52;;
72284;SDS011;60220;53.552;10.092;2024-03-22T07:03:46;49.03;;;23.63;;
72284;SDS011;60220;53.552;10.092;2024-03-22T07:06:11;54.45;;;24.60;;
72284;SDS011;60220;53.552;10.092;2024-03-22T07:08:38;47.15;;;20.88;;
72284;SDS011;60220;53.552;10.092;2024-03-22T07:11:05;53.28;;;25.33;;
72284;SDS011;60220;53.552;10.092;2024-03-22T07:13:31;57.22;;;25.02;;
72284;SDS011;60220;53.552;10.092;2024-03-22T07:15:59;42.17;;;19.33;;
72284;SDS011;60220;53.552;10.092;2024-03-22T07:18:25;53.95;;;23.85;;
72284;SDS011;60220;53.552;10.092;2024-03-22T07:20:52;49.97;;;22.73;;
72284;SDS011;60220;53.552;10.092;2024-03-22T07:23:18;59.58;;;25.00;;
72284;SDS011;60220;53.552;10.092;2024-03-22T07:25:44;56.45;;;24.13;;
72284;SDS011;60220;53.552;10.092;2024-03-22T07:28:11;53.25;;;26.10;;
72284;SDS011;60220;53.552;10.092;2024-03-22T07:30:37;63.53;;;26.90;;
72284;SDS011;60220;53.552;10.092;2024-03-22T07:33:04;53.10;;;24.67;;
72284;SDS011;60220;53.552;10.092;2024-03-22T07:35:31;61.83;;;26.13;;
72284;SDS011;60220;53.552;10.092;2024-03-22T07:37:56;53.97;;;25.52;;
72284;SDS011;60220;53.552;10.092;2024-03-22T07:40:25;57.58;;;24.80;;
72284;SDS011;60220;53.552;10.092;2024-03-22T07:42:51;55.25;;;25.02;;
72284;SDS011;60220;53.552;10.092;2024-03-22T07:45:18;55.22;;;24.35;;
72284;SDS011;60220;53.552;10.092;2024-03-22T07:47:46;54.72;;;24.70;;
72284;SDS011;60220;53.552;10.092;2024-03-22T07:50:15;53.97;;;23.80;;
72284;SDS011;60220;53.552;10.092;2024-03-22T07:52:40;52.55;;;24.55;;
72284;SDS011;60220;53.552;10.092;2024-03-22T07:55:07;52.45;;;23.23;;
72284;SDS011;60220;53.552;10.092;2024-03-22T07:57:33;57.38;;;25.73;;
72284;SDS011;60220;53.552;10.092;2024-03-22T07:59:59;56.30;;;24.38;;
72284;SDS011;60220;53.552;10.092;2024-03-22T08:02:33;64.35;;;26.00;;
72284;SDS011;60220;53.552;10.092;2024-03-22T08:05:00;54.55;;;24.85;;
72284;SDS011;60220;53.552;10.092;2024-03-22T08:07:28;53.80;;;21.98;;
72284;SDS011;60220;53.552;10.092;2024-03-22T08:09:55;58.95;;;25.30;;
72284;SDS011;60220;53.552;10.092;2024-03-22T08:12:21;58.10;;;25.52;;
72284;SDS011;60220;53.552;10.092;2024-03-22T08:14:48;52.67;;;24.08;;
72284;SDS011;60220;53.552;10.092;2024-03-22T08:17:13;59.03;;;25.55;;
72284;SDS011;60220;53.552;10.092;2024-03-22T08:19:41;51.50;;;25.23;;
72284;SDS011;60220;53.552;10.092;2024-03-22T08:22:07;48.75;;;22.90;;
72284;SDS011;60220;53.552;10.092;2024-03-22T08:24:34;59.55;;;26.17;;
72284;SDS011;60220;53.552;10.092;2024-03-22T08:26:59;56.72;;;23.80;;
72284;SDS011;60220;53.552;10.092;2024-03-22T08:29:28;56.78;;;24.58;;
72284;SDS011;60220;53.552;10.092;2024-03-22T08:31:54;52.47;;;22.95;;
72284;SDS011;60220;53.552;10.092;2024-03-22T08:34:23;50.70;;;24.27;;
72284;SDS011;60220;53.552;10.092;2024-03-22T08:36:50;57.17;;;25.75;;
72284;SDS011;60220;53.552;10.092;2024-03-22T08:39:16;59.13;;;26.85;;
72284;SDS011;60220;53.552;10.092;2024-03-22T08:41:42;50.42;;;22.48;;
72284;SDS011;60220;53.552;10.092;2024-03-22T08:44:12;57.45;;;25.73;;
72284;SDS011;60220;53.552;10.092;2024-03-22T08:46:40;40.85;;;19.85;;
72284;SDS011;60220;53.552;10.092;2024-03-22T08:49:07;60.40;;;26.40;;
72284;SDS011;60220;53.552;10.092;2024-03-22T08:51:35;62.70;;;27.15;;
72284;SDS011;60220;53.552;10.092;2024-03-22T08:54:03;59.80;;;23.15;;
72284;SDS011;60220;53.552;10.092;2024-03-22T08:56:31;60.78;;;24.42;;
72284;SDS011;60220;53.552;10.092;2024-03-22T08:58:57;56.95;;;23.85;;
72284;SDS011;60220;53.552;10.092;2024-03-22T09:01:24;59.20;;;23.65;;
72284;SDS011;60220;53.552;10.092;2024-03-22T09:03:51;53.30;;;23.95;;
72284;SDS011;60220;53.552;10.092;2024-03-22T09:06:17;60.05;;;25.38;;
72284;SDS011;60220;53.552;10.092;2024-03-22T09:08:44;59.58;;;26.92;;
72284;SDS011;60220;53.552;10.092;2024-03-22T09:11:12;61.53;;;27.35;;
72284;SDS011;60220;53.552;10.092;2024-03-22T09:13:38;60.53;;;25.38;;
72284;SDS011;60220;53.552;10.092;2024-03-22T09:16:04;59.10;;;26.65;;
72284;SDS011;60220;53.552;10.092;2024-03-22T09:18:31;67.30;;;26.33;;
72284;SDS011;60220;53.552;10.092;2024-03-22T09:20:59;57.35;;;25.20;;
72284;SDS011;60220;53.552;10.092;2024-03-22T09:23:26;65.25;;;25.70;;
72284;SDS011;60220;53.552;10.092;2024-03-22T09:25:51;55.40;;;23.23;;
72284;SDS011;60220;53.552;10.092;2024-03-22T09:28:19;65.15;;;25.92;;
72284;SDS011;60220;53.552;10.092;2024-03-22T09:30:45;60.30;;;24.98;;
72284;SDS011;60220;53.552;10.092;2024-03-22T09:33:12;58.40;;;25.15;;
72284;SDS011;60220;53.552;10.092;2024-03-22T09:35:38;74.45;;;27.15;;
72284;SDS011;60220;53.552;10.092;2024-03-22T09:38:05;67.40;;;27.40;;
72284;SDS011;60220;53.552;10.092;2024-03-22T09:40:30;61.90;;;25.70;;
72284;SDS011;60220;53.552;10.092;2024-03-22T09:43:01;60.38;;;25.75;;
72284;SDS011;60220;53.552;10.092;2024-03-22T09:45:29;48.47;;;22.08;;
72284;SDS011;60220;53.552;10.092;2024-03-22T09:48:00;55.35;;;24.27;;
72284;SDS011;60220;53.552;10.092;2024-03-22T09:50:26;58.53;;;23.33;;
72284;SDS011;60220;53.552;10.092;2024-03-22T09:52:54;61.17;;;23.95;;
72284;SDS011;60220;53.552;10.092;2024-03-22T09:55:22;51.72;;;22.25;;
72284;SDS011;60220;53.552;10.092;2024-03-22T09:57:50;57.50;;;23.60;;
72284;SDS011;60220;53.552;10.092;2024-03-22T10:00:18;58.00;;;23.20;;
72284;SDS011;60220;53.552;10.092;2024-03-22T10:02:48;65.45;;;25.83;;
72284;SDS011;60220;53.552;10.092;2024-03-22T10:05:14;48.35;;;21.15;;
72284;SDS011;60220;53.552;10.092;2024-03-22T10:07:44;54.17;;;22.80;;
72284;SDS011;60220;53.552;10.092;2024-03-22T10:10:10;55.83;;;23.25;;
72284;SDS011;60220;53.552;10.092;2024-03-22T10:12:37;52.22;;;21.23;;
72284;SDS011;60220;53.552;10.092;2024-03-22T10:15:04;62.50;;;24.38;;
72284;SDS011;60220;53.552;10.092;2024-03-22T10:17:33;56.20;;;22.75;;
72284;SDS011;60220;53.552;10.092;2024-03-22T10:20:01;47.88;;;21.15;;
72284;SDS011;60220;53.552;10.092;2024-03-22T10:22:28;48.33;;;21.33;;
72284;SDS011;60220;53.552;10.092;2024-03-22T10:24:56;57.28;;;23.35;;
72284;SDS011;60220;53.552;10.092;2024-03-22T10:27:26;59.58;;;25.05;;
72284;SDS011;60220;53.552;10.092;2024-03-22T10:29:52;46.90;;;19.50;;
72284;SDS011;60220;53.552;10.092;2024-03-22T10:32:19;51.88;;;21.52;;
72284;SDS011;60220;53.552;10.092;2024-03-22T10:34:47;46.80;;;20.88;;
72284;SDS011;60220;53.552;10.092;2024-03-22T10:37:18;51.13;;;22.35;;
72284;SDS011;60220;53.552;10.092;2024-03-22T10:39:44;49.30;;;21.92;;
72284;SDS011;60220;53.552;10.092;2024-03-22T10:42:15;49.67;;;22.17;;
72284;SDS011;60220;53.552;10.092;2024-03-22T10:44:42;48.63;;;20.55;;
72284;SDS011;60220;53.552;10.092;2024-03-22T10:47:09;43.70;;;19.25;;
72284;SDS011;60220;53.552;10.092;2024-03-22T10:49:37;45.40;;;19.40;;
72284;SDS011;60220;53.552;10.092;2024-03-22T10:52:04;38.88;;;17.75;;
72284;SDS011;60220;53.552;10.092;2024-03-22T10:54:38;38.97;;;17.15;;
72284;SDS011;60220;53.552;10.092;2024-03-22T10:57:07;36.22;;;16.50;;
72284;SDS011;60220;53.552;10.092;2024-03-22T10:59:37;32.25;;;17.33;;
72284;SDS011;60220;53.552;10.092;2024-03-22T11:02:10;34.53;;;15.63;;
72284;SDS011;60220;53.552;10.092;2024-03-22T11:04:36;27.80;;;13.40;;
72284;SDS011;60220;53.552;10.092;2024-03-22T11:07:03;27.40;;;13.48;;
72284;SDS011;60220;53.552;10.092;2024-03-22T11:09:31;29.33;;;13.82;;
72284;SDS011;60220;53.552;10.092;2024-03-22T11:11:59;23.35;;;10.80;;
72284;SDS011;60220;53.552;10.092;2024-03-22T11:14:25;13.82;;;6.95;;
72284;SDS011;60220;53.552;10.092;2024-03-22T11:16:52;22.50;;;8.68;;
72284;SDS011;60220;53.552;10.092;2024-03-22T11:19:18;20.65;;;9.90;;
72284;SDS011;60220;53.552;10.092;2024-03-22T11:21:44;21.25;;;10.80;;
72284;SDS011;60220;53.552;10.092;2024-03-22T11:24:10;16.92;;;7.95;;
72284;SDS011;60220;53.552;10.092;2024-03-22T11:26:37;16.15;;;7.40;;
72284;SDS011;60220;53.552;10.092;2024-03-22T11:29:04;23.30;;;9.65;;
72284;SDS011;60220;53.552;10.092;2024-03-22T11:31:31;18.88;;;9.65;;
72284;SDS011;60220;53.552;10.092;2024-03-22T11:33:57;21.95;;;10.02;;
72284;SDS011;60220;53.552;10.092;2024-03-22T11:36:23;27.67;;;10.23;;
72284;SDS011;60220;53.552;10.092;2024-03-22T11:38:49;24.48;;;12.27;;
72284;SDS011;60220;53.552;10.092;2024-03-22T11:41:19;24.58;;;10.70;;
72284;SDS011;60220;53.552;10.092;2024-03-22T11:43:48;22.15;;;10.13;;
72284;SDS011;60220;53.552;10.092;2024-03-22T11:46:17;22.48;;;11.05;;
72284;SDS011;60220;53.552;10.092;2024-03-22T11:48:43;26.65;;;11.85;;
72284;SDS011;60220;53.552;10.092;2024-03-22T11:51:09;21.80;;;11.13;;
72284;SDS011;60220;53.552;10.092;2024-03-22T11:53:37;18.65;;;10.88;;
72284;SDS011;60220;53.552;10.092;2024-03-22T11:56:06;31.30;;;11.93;;
72284;SDS011;60220;53.552;10.092;2024-03-22T11:58:33;26.35;;;11.80;;
72284;SDS011;60220;53.552;10.092;2024-03-22T12:01:00;19.30;;;9.55;;
72284;SDS011;60220;53.552;10.092;2024-03-22T12:03:28;27.05;;;14.35;;
72284;SDS011;60220;53.552;10.092;2024-03-22T12:05:55;29.17;;;13.07;;
72284;SDS011;60220;53.552;10.092;2024-03-22T12:08:25;29.00;;;13.98;;
72284;SDS011;60220;53.552;10.092;2024-03-22T12:10:51;31.10;;;14.02;;
72284;SDS011;60220;53.552;10.092;2024-03-22T12:13:17;30.52;;;13.65;;
72284;SDS011;60220;53.552;10.092;2024-03-22T12:15:44;25.15;;;11.40;;
72284;SDS011;60220;53.552;10.092;2024-03-22T12:18:09;29.88;;;13.73;;
72284;SDS011;60220;53.552;10.092;2024-03-22T12:20:39;23.48;;;10.55;;
72284;SDS011;60220;53.552;10.092;2024-03-22T12:23:05;29.95;;;11.95;;
72284;SDS011;60220;53.552;10.092;2024-03-22T12:25:32;22.98;;;11.23;;
72284;SDS011;60220;53.552;10.092;2024-03-22T12:27:57;22.95;;;10.77;;
72284;SDS011;60220;53.552;10.092;2024-03-22T12:30:24;28.02;;;11.60;;
72284;SDS011;60220;53.552;10.092;2024-03-22T12:32:51;22.08;;;10.45;;
72284;SDS011;60220;53.552;10.092;2024-03-22T12:35:20;23.02;;;9.93;;
72284;SDS011;60220;53.552;10.092;2024-03-22T12:37:47;23.17;;;10.13;;
72284;SDS011;60220;53.552;10.092;2024-03-22T12:40:16;10.50;;;5.47;;
72284;SDS011;60220;53.552;10.092;2024-03-22T12:42:44;21.38;;;8.10;;
72284;SDS011;60220;53.552;10.092;2024-03-22T12:45:11;15.85;;;8.80;;
72284;SDS011;60220;53.552;10.092;2024-03-22T12:47:36;18.48;;;8.43;;
72284;SDS011;60220;53.552;10.092;2024-03-22T12:50:04;13.82;;;7.35;;
72284;SDS011;60220;53.552;10.092;2024-03-22T12:52:30;14.95;;;7.60;;
72284;SDS011;60220;53.552;10.092;2024-03-22T12:54:58;16.02;;;8.40;;
72284;SDS011;60220;53.552;10.092;2024-03-22T12:57:24;15.48;;;6.57;;
72284;SDS011;60220;53.552;10.092;2024-03-22T12:59:51;14.25;;;5.82;;
72284;SDS011;60220;53.552;10.092;2024-03-22T13:02:19;16.35;;;7.18;;
72284;SDS011;60220;53.552;10.092;2024-03-22T13:04:45;12.30;;;5.80;;
72284;SDS011;60220;53.552;10.092;2024-03-22T13:07:12;17.05;;;6.30;;
72284;SDS011;60220;53.552;10.092;2024-03-22T13:09:41;10.65;;;5.55;;
72284;SDS011;60220;53.552;10.092;2024-03-22T13:12:08;12.68;;;5.20;;
72284;SDS011;60220;53.552;10.092;2024-03-22T13:14:35;9.25;;;4.38;;
72284;SDS011;60220;53.552;10.092;2024-03-22T13:17:00;7.85;;;4.72;;
72284;SDS011;60220;53.552;10.092;2024-03-22T13:19:27;8.38;;;4.88;;
72284;SDS011;60220;53.552;10.092;2024-03-22T13:21:53;8.50;;;4.80;;
72284;SDS011;60220;53.552;10.092;2024-03-22T13:24:19;9.77;;;5.13;;
72284;SDS011;60220;53.552;10.092;2024-03-22T13:26:45;7.28;;;4.63;;
72284;SDS011;60220;53.552;10.092;2024-03-22T13:29:14;8.90;;;4.82;;
72284;SDS011;60220;53.552;10.092;2024-03-22T13:31:40;9.70;;;5.45;;
72284;SDS011;60220;53.552;10.092;2024-03-22T13:34:06;11.57;;;5.70;;
72284;SDS011;60220;53.552;10.092;2024-03-22T13:36:32;6.82;;;4.10;;
72284;SDS011;60220;53.552;10.092;2024-03-22T13:38:59;8.38;;;5.28;;
72284;SDS011;60220;53.552;10.092;2024-03-22T13:41:27;8.98;;;5.78;;
72284;SDS011;60220;53.552;10.092;2024-03-22T13:43:54;7.35;;;4.63;;
72284;SDS011;60220;53.552;10.092;2024-03-22T13:46:21;5.65;;;3.30;;
72284;SDS011;60220;53.552;10.092;2024-03-22T13:48:48;3.97;;;2.53;;
72284;SDS011;60220;53.552;10.092;2024-03-22T13:51:14;3.60;;;2.25;;
72284;SDS011;60220;53.552;10.092;2024-03-22T13:53:41;6.78;;;2.25;;
72284;SDS011;60220;53.552;10.092;2024-03-22T13:56:07;2.55;;;1.75;;
72284;SDS011;60220;53.552;10.092;2024-03-22T13:58:34;3.33;;;2.50;;
72284;SDS011;60220;53.552;10.092;2024-03-22T14:01:03;3.97;;;1.60;;
72284;SDS011;60220;53.552;10.092;2024-03-22T14:03:31;5.78;;;1.90;;
72284;SDS011;60220;53.552;10.092;2024-03-22T14:05:57;2.70;;;1.77;;
72284;SDS011;60220;53.552;10.092;2024-03-22T14:08:24;2.80;;;2.00;;
72284;SDS011;60220;53.552;10.092;2024-03-22T14:10:51;2.20;;;1.80;;
72284;SDS011;60220;53.552;10.092;2024-03-22T14:13:20;2.78;;;1.67;;